createdAt,value
2018-02-12T00:00:19.557Z,2.60
2018-02-12T00:02:47.020Z,2.60
2018-02-12T00:05:14.489Z,2.70
2018-02-12T00:07:41.929Z,2.60
2018-02-12T00:10:09.389Z,2.60
2018-02-12T00:12:36.851Z,2.60
2018-02-12T00:15:04.309Z,2.70
2018-02-12T00:17:31.756Z,2.70
2018-02-12T00:19:59.211Z,2.60
2018-02-12T00:22:26.666Z,2.60
2018-02-12T00:24:54.117Z,2.60
2018-02-12T00:27:21.577Z,2.60
2018-02-12T00:29:49.022Z,2.50
2018-02-12T00:32:17.246Z,2.50
2018-02-12T00:34:45.457Z,2.50
2018-02-12T00:37:13.690Z,2.60
2018-02-12T00:39:41.138Z,2.60
2018-02-12T00:42:08.581Z,2.60
2018-02-12T00:44:36.047Z,2.60
2018-02-12T00:47:03.496Z,2.60
2018-02-12T00:49:30.957Z,2.60
2018-02-12T00:51:58.455Z,2.60
2018-02-12T00:54:25.881Z,2.60
2018-02-12T00:56:53.328Z,2.60
2018-02-12T00:59:20.845Z,2.60
2018-02-12T01:01:48.261Z,2.60
2018-02-12T01:04:15.725Z,2.60
2018-02-12T01:06:43.198Z,2.60
2018-02-12T01:09:10.656Z,2.70
2018-02-12T01:11:38.102Z,2.70
2018-02-12T01:14:05.573Z,2.60
2018-02-12T01:16:33.018Z,2.50
2018-02-12T01:19:00.477Z,2.70
2018-02-12T01:21:27.935Z,2.60
2018-02-12T01:23:55.618Z,2.60
2018-02-12T01:26:23.833Z,2.60
2018-02-12T01:28:51.290Z,2.50
2018-02-12T01:31:19.149Z,2.60
2018-02-12T01:33:46.620Z,2.60
2018-02-12T01:36:14.125Z,2.60
2018-02-12T01:38:41.581Z,2.70
2018-02-12T01:41:09.039Z,2.60
2018-02-12T01:43:36.486Z,2.70
2018-02-12T01:46:03.950Z,2.70
2018-02-12T01:48:31.402Z,2.60
2018-02-12T01:50:58.862Z,2.70
2018-02-12T01:53:26.314Z,2.70
2018-02-12T01:55:53.768Z,2.70
2018-02-12T01:58:21.242Z,2.70
2018-02-12T02:00:48.694Z,2.70
2018-02-12T02:03:16.155Z,2.70
2018-02-12T02:05:43.605Z,2.60
2018-02-12T02:08:11.070Z,2.60
2018-02-12T02:10:39.295Z,2.70
2018-02-12T02:13:06.752Z,2.70
2018-02-12T02:15:34.198Z,2.70
2018-02-12T02:18:01.658Z,2.70
2018-02-12T02:20:29.100Z,2.70
2018-02-12T02:22:56.566Z,2.70
2018-02-12T02:25:24.030Z,2.70
2018-02-12T02:27:51.491Z,2.70
2018-02-12T02:30:18.970Z,2.70
2018-02-12T02:32:46.420Z,2.70
2018-02-12T02:35:13.891Z,2.70
2018-02-12T02:37:41.338Z,2.70
2018-02-12T02:40:08.807Z,2.70
2018-02-12T02:42:36.253Z,2.70
2018-02-12T02:45:03.707Z,2.60
2018-02-12T02:47:31.166Z,2.60
2018-02-12T02:49:58.653Z,2.60
2018-02-12T02:52:26.116Z,2.60
2018-02-12T02:54:54.339Z,2.50
2018-02-12T02:57:21.796Z,2.50
2018-02-12T02:59:49.245Z,2.50
2018-02-12T03:02:16.706Z,2.50
2018-02-12T03:04:44.151Z,2.60
2018-02-12T03:07:11.609Z,2.60
2018-02-12T03:09:39.070Z,2.60
2018-02-12T03:12:06.520Z,2.70
2018-02-12T03:14:33.975Z,2.60
2018-02-12T03:17:01.431Z,2.60
2018-02-12T03:19:28.891Z,2.70
2018-02-12T03:21:56.346Z,2.70
2018-02-12T03:24:23.826Z,2.70
2018-02-12T03:26:51.282Z,2.80
2018-02-12T03:29:18.742Z,2.80
2018-02-12T03:31:46.190Z,2.80
2018-02-12T03:34:13.654Z,2.80
2018-02-12T03:36:41.101Z,2.80
2018-02-12T03:39:08.858Z,2.90
2018-02-12T03:41:36.305Z,2.90
2018-02-12T03:44:03.769Z,2.90
2018-02-12T03:46:31.231Z,2.90
2018-02-12T03:48:58.671Z,2.80
2018-02-12T03:51:26.135Z,2.80
2018-02-12T03:53:53.593Z,2.70
2018-02-12T03:56:21.045Z,2.80
2018-02-12T03:58:48.498Z,2.90
2018-02-12T04:01:15.966Z,2.80
2018-02-12T04:03:43.414Z,2.90
2018-02-12T04:06:10.874Z,2.80
2018-02-12T04:08:38.325Z,2.80
2018-02-12T04:11:05.790Z,2.90
2018-02-12T04:13:33.237Z,2.90
2018-02-12T04:16:00.710Z,3.00
2018-02-12T04:18:28.160Z,3.00
2018-02-12T04:20:55.610Z,3.00
2018-02-12T04:23:23.061Z,2.90
2018-02-12T04:25:51.293Z,2.80
2018-02-12T04:28:18.742Z,2.80
2018-02-12T04:30:46.193Z,2.70
2018-02-12T04:33:14.420Z,2.80
2018-02-12T04:35:41.865Z,2.80
2018-02-12T04:38:10.088Z,2.80
2018-02-12T04:40:37.543Z,2.80
2018-02-12T04:43:04.989Z,2.80
2018-02-12T04:45:32.455Z,2.80
2018-02-12T04:47:59.906Z,2.90
2018-02-12T04:50:27.361Z,3.00
2018-02-12T04:52:54.809Z,3.00
2018-02-12T04:55:22.267Z,3.10
2018-02-12T04:57:49.709Z,3.10
2018-02-12T05:00:17.177Z,2.90
2018-02-12T05:02:44.634Z,2.90
2018-02-12T05:05:12.083Z,2.90
2018-02-12T05:07:40.301Z,3.00
2018-02-12T05:10:07.759Z,3.00
2018-02-12T05:12:35.222Z,2.90
2018-02-12T05:15:02.678Z,2.90
2018-02-12T05:17:30.164Z,2.80
2018-02-12T05:19:57.626Z,2.80
2018-02-12T05:22:25.105Z,2.90
2018-02-12T05:24:52.566Z,2.80
2018-02-12T05:27:20.017Z,2.80
2018-02-12T05:29:47.465Z,2.80
2018-02-12T05:32:14.909Z,2.80
2018-02-12T05:34:43.144Z,2.90
2018-02-12T05:37:10.586Z,2.80
2018-02-12T05:39:38.069Z,2.90
2018-02-12T05:42:05.525Z,2.90
2018-02-12T05:44:32.982Z,2.90
2018-02-12T05:47:01.199Z,2.90
2018-02-12T05:49:29.430Z,2.80
2018-02-12T05:51:56.873Z,2.80
2018-02-12T05:54:24.338Z,2.70
2018-02-12T05:56:51.792Z,2.60
2018-02-12T05:59:19.251Z,2.60
2018-02-12T06:01:46.693Z,2.60
2018-02-12T06:04:14.157Z,2.50
2018-02-12T06:06:41.595Z,2.50
2018-02-12T06:09:09.046Z,2.30
2018-02-12T06:11:36.498Z,2.30
2018-02-12T06:14:03.958Z,2.20
2018-02-12T06:16:31.409Z,2.10
2018-02-12T06:18:58.875Z,2.00
2018-02-12T06:21:26.330Z,2.00
2018-02-12T06:23:53.782Z,1.80
2018-02-12T06:26:21.246Z,1.70
2018-02-12T06:28:48.700Z,1.60
2018-02-12T06:31:16.168Z,1.60
2018-02-12T06:33:43.623Z,1.70
2018-02-12T06:36:11.101Z,1.70
2018-02-12T06:38:38.549Z,1.70
2018-02-12T06:41:06.050Z,1.70
2018-02-12T06:43:33.502Z,1.70
2018-02-12T06:46:00.963Z,1.70
2018-02-12T06:48:28.421Z,1.70
2018-02-12T06:50:55.900Z,1.70
2018-02-12T06:53:23.353Z,1.80
2018-02-12T06:55:50.813Z,1.90
2018-02-12T06:58:19.042Z,1.80
2018-02-12T07:00:46.490Z,1.80
2018-02-12T07:03:13.945Z,1.80
2018-02-12T07:05:41.427Z,1.80
2018-02-12T07:08:08.878Z,1.70
2018-02-12T07:10:36.339Z,1.80
2018-02-12T07:13:03.796Z,1.60
2018-02-12T07:15:31.261Z,1.70
2018-02-12T07:17:58.713Z,1.70
2018-02-12T07:20:26.207Z,1.60
2018-02-12T07:22:53.645Z,1.60
2018-02-12T07:25:21.093Z,1.70
2018-02-12T07:27:48.551Z,1.60
2018-02-12T07:30:16.007Z,1.60
2018-02-12T07:32:43.471Z,1.60
2018-02-12T07:35:10.926Z,1.60
2018-02-12T07:37:38.390Z,1.70
2018-02-12T07:40:06.601Z,1.70
2018-02-12T07:42:34.067Z,1.70
2018-02-12T07:45:01.526Z,1.70
2018-02-12T07:47:28.977Z,1.70
2018-02-12T07:49:56.445Z,1.80
2018-02-12T07:52:23.899Z,1.80
2018-02-12T07:54:51.361Z,1.80
2018-02-12T07:57:18.815Z,1.80
2018-02-12T07:59:46.278Z,1.90
2018-02-12T08:02:13.723Z,2.00
2018-02-12T08:04:41.187Z,1.90
2018-02-12T08:07:08.650Z,1.90
2018-02-12T08:09:36.101Z,1.90
2018-02-12T08:12:03.577Z,1.90
2018-02-12T08:14:31.030Z,2.00
2018-02-12T08:16:58.491Z,2.00
2018-02-12T08:19:25.945Z,2.00
2018-02-12T08:21:53.406Z,2.10
2018-02-12T08:24:20.854Z,2.00
2018-02-12T08:26:48.323Z,2.10
2018-02-12T08:29:15.774Z,2.00
2018-02-12T08:31:43.233Z,2.10
2018-02-12T08:34:10.685Z,2.10
2018-02-12T08:36:38.146Z,2.00
2018-02-12T08:39:05.598Z,2.00
2018-02-12T08:41:33.063Z,2.00
2018-02-12T08:44:00.505Z,2.00
2018-02-12T08:46:27.983Z,2.00
2018-02-12T08:48:55.441Z,2.10
2018-02-12T08:51:22.902Z,2.00
2018-02-12T08:53:50.353Z,2.00
2018-02-12T08:56:17.821Z,2.00
2018-02-12T08:58:46.058Z,2.10
2018-02-12T09:01:13.507Z,2.00
2018-02-12T09:03:40.972Z,2.10
2018-02-12T09:06:08.430Z,2.20
2018-02-12T09:08:35.891Z,2.20
2018-02-12T09:11:03.352Z,2.20
2018-02-12T09:13:30.814Z,2.10
2018-02-12T09:15:58.265Z,2.10
2018-02-12T09:18:26.503Z,2.00
2018-02-12T09:20:53.972Z,2.00
2018-02-12T09:23:21.461Z,2.10
2018-02-12T09:25:48.913Z,2.20
2018-02-12T09:28:16.418Z,2.40
2018-02-12T09:30:43.851Z,2.40
2018-02-12T09:33:11.309Z,2.50
2018-02-12T09:35:38.782Z,2.60
2018-02-12T09:38:07.011Z,2.50
2018-02-12T09:40:34.490Z,2.50
2018-02-12T09:43:01.946Z,2.60
2018-02-12T09:45:29.409Z,2.70
2018-02-12T09:47:56.869Z,2.80
2018-02-12T09:50:24.327Z,3.00
2018-02-12T09:52:51.793Z,2.90
2018-02-12T09:55:19.262Z,2.80
2018-02-12T09:57:47.497Z,2.90
2018-02-12T10:00:14.945Z,2.90
2018-02-12T10:02:42.409Z,2.80
2018-02-12T10:05:09.866Z,2.70
2018-02-12T10:07:37.325Z,2.80
2018-02-12T10:10:04.782Z,2.80
2018-02-12T10:12:32.233Z,2.90
2018-02-12T10:14:59.703Z,3.00
2018-02-12T10:17:27.175Z,3.10
2018-02-12T10:19:54.630Z,3.00
2018-02-12T10:22:22.094Z,3.00
2018-02-12T10:24:49.572Z,3.00
2018-02-12T10:27:17.814Z,3.00
2018-02-12T10:29:45.273Z,3.00
2018-02-12T10:32:12.751Z,3.00
2018-02-12T10:34:40.206Z,3.00
2018-02-12T10:37:08.440Z,2.80
2018-02-12T10:39:35.896Z,2.80
2018-02-12T10:42:03.343Z,2.80
2018-02-12T10:44:30.805Z,2.70
2018-02-12T10:46:58.262Z,2.90
2018-02-12T10:49:25.717Z,2.80
2018-02-12T10:51:53.186Z,2.80
2018-02-12T10:54:20.641Z,2.90
2018-02-12T10:56:48.117Z,3.00
2018-02-12T10:59:15.598Z,3.00
2018-02-12T11:01:43.834Z,3.00
2018-02-12T11:04:11.289Z,3.00
2018-02-12T11:06:38.754Z,3.00
2018-02-12T11:09:06.222Z,3.00
2018-02-12T11:11:33.765Z,2.90
2018-02-12T11:14:01.249Z,3.00
2018-02-12T11:16:28.698Z,2.80
2018-02-12T11:18:56.153Z,2.90
2018-02-12T11:21:23.605Z,3.00
2018-02-12T11:23:51.868Z,2.90
2018-02-12T11:26:19.336Z,2.90
2018-02-12T11:28:46.802Z,2.80
2018-02-12T11:31:14.269Z,2.70
2018-02-12T11:33:41.713Z,2.70
2018-02-12T11:36:09.165Z,2.70
2018-02-12T11:38:36.625Z,2.50
2018-02-12T11:41:04.086Z,2.40
2018-02-12T11:43:31.810Z,2.40
2018-02-12T11:45:59.273Z,2.50
2018-02-12T11:48:26.762Z,2.30
2018-02-12T11:50:54.221Z,2.40
2018-02-12T11:53:21.675Z,2.50
2018-02-12T11:55:49.143Z,2.60
2018-02-12T11:58:16.606Z,2.80
2018-02-12T12:00:44.067Z,2.80
2018-02-12T12:03:12.290Z,3.00
2018-02-12T12:05:39.774Z,2.90
2018-02-12T12:08:07.296Z,2.90
2018-02-12T12:10:35.486Z,3.00
2018-02-12T12:13:02.941Z,3.00
2018-02-12T12:15:30.402Z,3.00
2018-02-12T12:17:57.895Z,3.00
2018-02-12T12:20:26.161Z,3.10
2018-02-12T12:22:53.625Z,3.10
2018-02-12T12:25:21.101Z,3.10
2018-02-12T12:27:49.335Z,3.30
2018-02-12T12:30:16.789Z,3.30
2018-02-12T12:32:44.255Z,3.10
2018-02-12T12:35:11.711Z,3.00
2018-02-12T12:37:39.934Z,3.10
2018-02-12T12:40:08.278Z,3.10
2018-02-12T12:42:35.730Z,3.30
2018-02-12T12:45:03.206Z,3.50
2018-02-12T12:47:30.656Z,3.60
2018-02-12T12:49:58.111Z,3.60
2018-02-12T12:52:25.570Z,3.60
2018-02-12T12:54:53.039Z,3.60
2018-02-12T12:57:21.269Z,3.60
2018-02-12T12:59:48.725Z,3.60
2018-02-12T13:02:16.201Z,3.60
2018-02-12T13:04:43.703Z,3.50
2018-02-12T13:07:11.174Z,3.60
2018-02-12T13:09:38.691Z,3.70
2018-02-12T13:12:06.869Z,3.70
2018-02-12T13:14:34.362Z,3.70
2018-02-12T13:17:02.389Z,3.70
2018-02-12T13:19:29.859Z,3.70
2018-02-12T13:21:58.104Z,3.50
2018-02-12T13:24:25.558Z,3.50
2018-02-12T13:26:53.022Z,3.40
2018-02-12T13:29:20.473Z,3.20
2018-02-12T13:31:47.934Z,3.00
2018-02-12T13:34:15.399Z,2.90
2018-02-12T13:36:42.875Z,2.80
2018-02-12T13:39:11.116Z,2.30
2018-02-12T13:41:38.558Z,2.30
2018-02-12T13:44:06.021Z,2.30
2018-02-12T13:46:33.471Z,2.40
2018-02-12T13:49:00.938Z,2.50
2018-02-12T13:51:28.395Z,2.50
2018-02-12T13:53:55.958Z,2.70
2018-02-12T13:56:23.421Z,2.80
2018-02-12T13:58:51.720Z,2.80
2018-02-12T14:01:19.223Z,2.70
2018-02-12T14:03:46.687Z,2.80
2018-02-12T14:06:14.181Z,3.00
2018-02-12T14:08:41.656Z,3.10
2018-02-12T14:11:09.885Z,3.10
2018-02-12T14:13:37.359Z,3.00
2018-02-12T14:16:04.838Z,3.00
2018-02-12T14:18:32.321Z,3.00
2018-02-12T14:21:00.542Z,2.80
2018-02-12T14:23:27.998Z,2.80
2018-02-12T14:25:55.454Z,2.70
2018-02-12T14:28:22.918Z,2.80
2018-02-12T14:30:51.150Z,3.00
2018-02-12T14:33:18.842Z,3.00
2018-02-12T14:35:46.307Z,3.00
2018-02-12T14:38:13.786Z,3.10
2018-02-12T14:40:41.245Z,3.20
2018-02-12T14:43:08.711Z,3.20
2018-02-12T14:45:36.170Z,3.30
2018-02-12T14:48:04.413Z,3.30
2018-02-12T14:50:31.885Z,3.30
2018-02-12T14:52:59.342Z,3.30
2018-02-12T14:55:26.814Z,3.30
2018-02-12T14:57:54.285Z,3.30
2018-02-12T15:00:22.514Z,3.10
2018-02-12T15:02:49.986Z,3.10
2018-02-12T15:05:17.437Z,3.00
2018-02-12T15:07:44.893Z,2.90
2018-02-12T15:10:12.350Z,2.90
2018-02-12T15:12:39.822Z,2.90
2018-02-12T15:15:07.282Z,2.80
2018-02-12T15:17:35.189Z,2.80
2018-02-12T15:20:02.668Z,2.70
2018-02-12T15:22:30.138Z,2.70
2018-02-12T15:24:57.609Z,2.70
2018-02-12T15:27:25.078Z,2.80
2018-02-12T15:29:52.566Z,2.80
2018-02-12T15:32:20.048Z,2.90
2018-02-12T15:34:47.508Z,2.80
2018-02-12T15:37:14.971Z,2.90
2018-02-12T15:39:42.490Z,2.90
2018-02-12T15:42:10.753Z,2.90
2018-02-12T15:44:38.989Z,2.90
2018-02-12T15:47:06.459Z,2.80
2018-02-12T15:49:33.926Z,2.70
2018-02-12T15:52:01.399Z,2.70
2018-02-12T15:54:29.632Z,2.60
2018-02-12T15:56:57.161Z,2.60
2018-02-12T15:59:24.590Z,2.50
2018-02-12T16:01:52.042Z,2.60
2018-02-12T16:04:19.517Z,2.60
2018-02-12T16:06:47.743Z,2.60
2018-02-12T16:09:15.217Z,2.60
2018-02-12T16:11:42.685Z,2.50
2018-02-12T16:14:10.162Z,2.40
2018-02-12T16:16:38.393Z,2.30
2018-02-12T16:19:05.867Z,2.30
2018-02-12T16:21:33.325Z,2.30
2018-02-12T16:24:00.785Z,2.20
2018-02-12T16:26:28.247Z,2.20
2018-02-12T16:28:55.702Z,2.20
2018-02-12T16:31:23.375Z,2.00
2018-02-12T16:33:51.590Z,1.90
2018-02-12T16:36:19.058Z,1.80
2018-02-12T16:38:46.523Z,1.90
2018-02-12T16:41:14.214Z,1.80
2018-02-12T16:43:41.681Z,1.90
2018-02-12T16:46:09.931Z,1.80
2018-02-12T16:48:37.396Z,1.80
2018-02-12T16:51:04.857Z,1.70
2018-02-12T16:53:32.318Z,1.70
2018-02-12T16:55:59.785Z,1.80
2018-02-12T16:58:27.269Z,1.70
2018-02-12T17:00:54.740Z,1.60
2018-02-12T17:03:22.219Z,1.60
2018-02-12T17:05:49.681Z,1.50
2018-02-12T17:08:17.203Z,1.50
2018-02-12T17:10:44.658Z,1.50
2018-02-12T17:13:12.130Z,1.60
2018-02-12T17:15:39.590Z,1.50
2018-02-12T17:18:07.110Z,1.40
2018-02-12T17:20:35.338Z,1.40
2018-02-12T17:23:02.827Z,1.40
2018-02-12T17:25:30.291Z,1.40
2018-02-12T17:27:57.769Z,1.30
2018-02-12T17:30:25.994Z,1.30
2018-02-12T17:32:53.453Z,1.30
2018-02-12T17:35:20.924Z,1.20
2018-02-12T17:37:48.411Z,1.20
2018-02-12T17:40:15.898Z,1.20
2018-02-12T17:42:43.364Z,1.20
2018-02-12T17:45:10.824Z,1.20
2018-02-12T17:47:38.305Z,1.10
2018-02-12T17:50:05.758Z,1.10
2018-02-12T17:52:33.213Z,1.10
2018-02-12T17:55:02.187Z,0.90
2018-02-12T17:57:29.674Z,0.90
2018-02-12T17:59:57.126Z,0.90
2018-02-12T18:02:24.590Z,0.80
2018-02-12T18:04:52.041Z,0.80
2018-02-12T18:07:19.512Z,0.70
2018-02-12T18:09:47.753Z,0.80
2018-02-12T18:12:15.209Z,0.70
2018-02-12T18:14:42.656Z,0.80
2018-02-12T18:17:10.146Z,0.80
2018-02-12T18:19:37.601Z,0.90
2018-02-12T18:22:05.058Z,0.80
2018-02-12T18:24:32.518Z,0.70
2018-02-12T18:26:59.982Z,0.70
2018-02-12T18:29:27.442Z,0.70
2018-02-12T18:31:54.900Z,0.70
2018-02-12T18:34:22.354Z,0.60
2018-02-12T18:36:49.815Z,0.60
2018-02-12T18:39:17.266Z,0.60
2018-02-12T18:41:44.758Z,0.70
2018-02-12T18:44:12.205Z,0.80
2018-02-12T18:46:39.691Z,0.80
2018-02-12T18:49:07.140Z,0.80
2018-02-12T18:51:34.607Z,0.80
2018-02-12T18:54:02.059Z,0.80
2018-02-12T18:56:29.521Z,0.80
2018-02-12T18:58:56.986Z,0.70
2018-02-12T19:01:24.445Z,0.80
2018-02-12T19:03:52.048Z,0.80
2018-02-12T19:06:19.517Z,0.80
2018-02-12T19:08:47.746Z,0.80
2018-02-12T19:11:15.209Z,0.70
2018-02-12T19:13:42.661Z,0.60
2018-02-12T19:16:10.117Z,0.50
2018-02-12T19:18:37.593Z,0.50
2018-02-12T19:21:05.061Z,0.50
2018-02-12T19:23:33.304Z,0.60
2018-02-12T19:26:00.762Z,0.50
2018-02-12T19:28:28.214Z,0.60
2018-02-12T19:30:55.677Z,0.50
2018-02-12T19:33:23.117Z,0.60
2018-02-12T19:35:50.573Z,0.70
2018-02-12T19:38:18.021Z,0.60
2018-02-12T19:40:45.697Z,0.60
2018-02-12T19:43:13.159Z,0.70
2018-02-12T19:45:40.621Z,0.70
2018-02-12T19:48:08.093Z,0.70
2018-02-12T19:50:35.546Z,0.80
2018-02-12T19:53:03.006Z,0.80
2018-02-12T19:55:30.458Z,0.80
2018-02-12T19:57:57.928Z,0.80
2018-02-12T20:00:25.377Z,0.80
2018-02-12T20:02:52.847Z,0.70
2018-02-12T20:05:20.561Z,0.70
2018-02-12T20:07:48.025Z,0.80
2018-02-12T20:10:15.487Z,0.70
2018-02-12T20:12:42.932Z,0.70
2018-02-12T20:15:10.393Z,0.70
2018-02-12T20:17:37.839Z,0.70
2018-02-12T20:20:05.395Z,0.70
2018-02-12T20:22:32.955Z,0.60
2018-02-12T20:25:00.463Z,0.70
2018-02-12T20:27:27.922Z,0.70
2018-02-12T20:29:55.401Z,0.60
2018-02-12T20:32:23.639Z,0.50
2018-02-12T20:34:51.105Z,0.40
2018-02-12T20:37:18.557Z,0.50
2018-02-12T20:39:46.042Z,0.60
2018-02-12T20:42:14.285Z,0.50
2018-02-12T20:44:41.745Z,0.50
2018-02-12T20:47:09.205Z,0.60
2018-02-12T20:49:36.666Z,0.60
2018-02-12T20:52:04.120Z,0.60
2018-02-12T20:54:31.579Z,0.50
2018-02-12T20:56:59.046Z,0.50
2018-02-12T20:59:26.505Z,0.60
2018-02-12T21:01:53.963Z,0.60
2018-02-12T21:04:21.415Z,0.60
2018-02-12T21:06:48.874Z,0.60
2018-02-12T21:09:16.318Z,0.70
2018-02-12T21:11:43.779Z,0.50
2018-02-12T21:14:11.234Z,0.50
2018-02-12T21:16:38.700Z,0.70
2018-02-12T21:19:06.169Z,0.70
2018-02-12T21:21:33.617Z,0.60
2018-02-12T21:24:01.078Z,0.60
2018-02-12T21:26:28.525Z,0.60
2018-02-12T21:28:55.992Z,0.50
2018-02-12T21:31:23.437Z,0.40
2018-02-12T21:33:50.899Z,0.40
2018-02-12T21:36:18.344Z,0.30
2018-02-12T21:38:45.842Z,0.20
2018-02-12T21:41:14.062Z,0.10
2018-02-12T21:43:42.286Z,0.10
2018-02-12T21:48:44.434Z,0.10
2018-02-12T21:51:11.882Z,0.10
2018-02-12T21:53:39.362Z,0.10
2018-02-12T21:56:06.851Z,0.20
2018-02-12T21:58:35.070Z,0.20
2018-02-12T22:01:02.530Z,0.20
2018-02-12T22:03:30.000Z,0.20
2018-02-12T22:05:57.453Z,0.20
2018-02-12T22:08:24.935Z,0.20
2018-02-12T22:10:52.398Z,0.20
2018-02-12T22:13:20.624Z,0.20
2018-02-12T22:15:48.074Z,0.20
2018-02-12T22:18:15.533Z,0.30
2018-02-12T22:20:42.985Z,0.20
2018-02-12T22:23:10.435Z,0.30
2018-02-12T22:25:37.912Z,0.30
2018-02-12T22:28:05.374Z,0.20
2018-02-12T22:30:32.829Z,0.20
2018-02-12T22:33:00.311Z,0.10
2018-02-12T22:35:27.795Z,0.10
2018-02-12T22:37:55.294Z,0.10
2018-02-12T22:40:22.751Z,0.20
2018-02-12T22:42:50.217Z,0.10
2018-02-12T22:45:17.678Z,0.10
2018-02-12T22:47:45.138Z,0.10
2018-02-12T22:50:12.617Z,0.00
2018-02-12T22:52:40.850Z,-0.10
2018-02-12T22:55:08.344Z,-0.10
2018-02-12T22:57:35.966Z,-0.20
2018-02-12T23:00:04.335Z,-0.20
2018-02-12T23:02:32.558Z,-0.20
2018-02-12T23:05:00.095Z,-0.20
2018-02-12T23:07:28.450Z,-0.10
2018-02-12T23:09:55.926Z,-0.10
2018-02-12T23:12:23.385Z,0.00
2018-02-12T23:14:50.834Z,0.00
2018-02-12T23:17:18.294Z,0.00
2018-02-12T23:19:45.745Z,0.00
2018-02-12T23:22:13.205Z,0.10
2018-02-12T23:24:40.656Z,0.10
2018-02-12T23:27:08.882Z,0.10
2018-02-12T23:29:36.346Z,0.10
2018-02-12T23:32:04.567Z,0.10
2018-02-12T23:34:32.026Z,0.10
2018-02-12T23:36:59.474Z,0.10
2018-02-12T23:39:26.944Z,0.10
2018-02-12T23:41:54.395Z,0.10
2018-02-12T23:44:21.849Z,0.00
2018-02-12T23:46:49.301Z,0.00
2018-02-12T23:49:16.757Z,-0.10
2018-02-12T23:51:44.229Z,-0.20
2018-02-12T23:54:23.345Z,-0.20
2018-02-12T23:56:50.801Z,-0.30
2018-02-12T23:59:18.262Z,-0.30
